sensor_id;sensor_type;location;lat;lon;timestamp;pressure;altitude;pressure_sealevel;temperature;humidity
71805;BME280;59654;52.216;5.616;2023-02-12T00:00:23;103606.16;;;6.08;89.09
71805;BME280;59654;52.216;5.616;2023-02-12T00:00:53;103606.16;;;6.08;88.71
71805;BME280;59654;52.216;5.616;2023-02-12T00:01:25;103609.72;;;6.09;88.14
71805;BME280;59654;52.216;5.616;2023-02-12T00:01:58;103606.16;;;6.08;88.54
71805;BME280;59654;52.216;5.616;2023-02-12T00:02:28;103604.38;;;6.07;88.13
71805;BME280;59654;52.216;5.616;2023-02-12T00:02:59;103603.47;;;6.07;88.34
71805;BME280;59654;52.216;5.616;2023-02-12T00:03:30;103600.78;;;6.05;88.47
71805;BME280;59654;52.216;5.616;2023-02-12T00:04:01;103602.47;;;6.02;88.39
71805;BME280;59654;52.216;5.616;2023-02-12T00:04:33;103612.16;;;6.01;87.73
71805;BME280;59654;52.216;5.616;2023-02-12T00:05:04;103605.78;;;5.95;86.98
71805;BME280;59654;52.216;5.616;2023-02-12T00:05:39;103604.00;;;5.92;87.32
71805;BME280;59654;52.216;5.616;2023-02-12T00:06:14;103604.75;;;5.88;87.14
71805;BME280;59654;52.216;5.616;2023-02-12T00:06:45;103605.63;;;5.87;87.58
71805;BME280;59654;52.216;5.616;2023-02-12T00:07:15;103603.75;;;5.83;88.59
71805;BME280;59654;52.216;5.616;2023-02-12T00:07:46;103602.81;;;5.81;88.29
71805;BME280;59654;52.216;5.616;2023-02-12T00:08:17;103608.00;;;5.78;88.37
71805;BME280;59654;52.216;5.616;2023-02-12T00:08:50;103602.66;;;5.75;88.53
71805;BME280;59654;52.216;5.616;2023-02-12T00:09:22;103605.22;;;5.72;88.92
71805;BME280;59654;52.216;5.616;2023-02-12T00:09:52;103603.34;;;5.68;88.94
71805;BME280;59654;52.216;5.616;2023-02-12T00:10:23;103603.31;;;5.66;89.43
71805;BME280;59654;52.216;5.616;2023-02-12T00:10:54;103608.59;;;5.66;89.58
71805;BME280;59654;52.216;5.616;2023-02-12T00:11:28;103608.63;;;5.68;89.51
71805;BME280;59654;52.216;5.616;2023-02-12T00:11:59;103610.31;;;5.64;89.15
71805;BME280;59654;52.216;5.616;2023-02-12T00:12:30;103603.16;;;5.62;89.07
71805;BME280;59654;52.216;5.616;2023-02-12T00:13:00;103608.47;;;5.62;89.19
71805;BME280;59654;52.216;5.616;2023-02-12T00:13:31;103611.97;;;5.61;88.99
71805;BME280;59654;52.216;5.616;2023-02-12T00:14:02;103611.94;;;5.59;89.28
71805;BME280;59654;52.216;5.616;2023-02-12T00:14:37;103617.19;;;5.58;89.63
71805;BME280;59654;52.216;5.616;2023-02-12T00:15:08;103621.66;;;5.59;89.53
71805;BME280;59654;52.216;5.616;2023-02-12T00:15:41;103614.56;;;5.58;88.75
71805;BME280;59654;52.216;5.616;2023-02-12T00:16:20;103613.63;;;5.56;88.55
71805;BME280;59654;52.216;5.616;2023-02-12T00:16:55;103606.47;;;5.53;88.50
71805;BME280;59654;52.216;5.616;2023-02-12T00:17:25;103615.31;;;5.54;89.43
71805;BME280;59654;52.216;5.616;2023-02-12T00:17:56;103616.13;;;5.51;88.66
71805;BME280;59654;52.216;5.616;2023-02-12T00:18:27;103615.22;;;5.51;88.72
71805;BME280;59654;52.216;5.616;2023-02-12T00:18:58;103622.28;;;5.50;89.03
71805;BME280;59654;52.216;5.616;2023-02-12T00:19:30;103620.53;;;5.51;89.15
71805;BME280;59654;52.216;5.616;2023-02-12T00:20:01;103621.31;;;5.48;89.01
71805;BME280;59654;52.216;5.616;2023-02-12T00:20:33;103624.81;;;5.47;89.20
71805;BME280;59654;52.216;5.616;2023-02-12T00:21:05;103614.25;;;5.47;88.73
71805;BME280;59654;52.216;5.616;2023-02-12T00:21:38;103622.22;;;5.49;89.13
71805;BME280;59654;52.216;5.616;2023-02-12T00:22:08;103622.22;;;5.49;88.84
71805;BME280;59654;52.216;5.616;2023-02-12T00:22:39;103623.06;;;5.48;87.95
71805;BME280;59654;52.216;5.616;2023-02-12T00:23:10;103613.31;;;5.45;88.72
71805;BME280;59654;52.216;5.616;2023-02-12T00:23:41;103622.06;;;5.43;88.59
71805;BME280;59654;52.216;5.616;2023-02-12T00:24:11;103622.00;;;5.39;89.04
71805;BME280;59654;52.216;5.616;2023-02-12T00:24:42;103614.00;;;5.38;89.23
71805;BME280;59654;52.216;5.616;2023-02-12T00:25:13;103623.69;;;5.37;89.55
71805;BME280;59654;52.216;5.616;2023-02-12T00:25:44;103616.66;;;5.38;89.02
71805;BME280;59654;52.216;5.616;2023-02-12T00:26:17;103617.47;;;5.35;89.13
71805;BME280;59654;52.216;5.616;2023-02-12T00:26:52;103620.06;;;5.34;88.56
71805;BME280;59654;52.216;5.616;2023-02-12T00:27:23;103621.75;;;5.32;88.82
71805;BME280;59654;52.216;5.616;2023-02-12T00:27:55;103624.28;;;5.29;88.72
71805;BME280;59654;52.216;5.616;2023-02-12T00:28:26;103622.47;;;5.26;89.16
71805;BME280;59654;52.216;5.616;2023-02-12T00:28:56;103618.88;;;5.24;89.27
71805;BME280;59654;52.216;5.616;2023-02-12T00:29:27;103618.78;;;5.21;89.63
71805;BME280;59654;52.216;5.616;2023-02-12T00:29:58;103622.22;;;5.19;90.00
71805;BME280;59654;52.216;5.616;2023-02-12T00:30:29;103619.53;;;5.17;89.59
71805;BME280;59654;52.216;5.616;2023-02-12T00:31:08;103624.78;;;5.16;89.30
71805;BME280;59654;52.216;5.616;2023-02-12T00:31:46;103623.78;;;5.12;89.59
71805;BME280;59654;52.216;5.616;2023-02-12T00:32:17;103614.09;;;5.11;89.05
71805;BME280;59654;52.216;5.616;2023-02-12T00:32:49;103615.78;;;5.09;89.42
71805;BME280;59654;52.216;5.616;2023-02-12T00:33:20;103619.25;;;5.06;89.31
71805;BME280;59654;52.216;5.616;2023-02-12T00:33:51;103619.19;;;5.05;89.50
71805;BME280;59654;52.216;5.616;2023-02-12T00:34:23;103611.16;;;5.02;89.60
71805;BME280;59654;52.216;5.616;2023-02-12T00:34:53;103614.66;;;5.01;89.76
71805;BME280;59654;52.216;5.616;2023-02-12T00:35:24;103611.06;;;4.99;89.47
71805;BME280;59654;52.216;5.616;2023-02-12T00:35:56;103614.50;;;4.96;89.57
71805;BME280;59654;52.216;5.616;2023-02-12T00:36:29;103608.34;;;4.96;89.31
71805;BME280;59654;52.216;5.616;2023-02-12T00:37:00;103616.25;;;4.94;89.66
71805;BME280;59654;52.216;5.616;2023-02-12T00:37:31;103618.00;;;4.94;90.08
71805;BME280;59654;52.216;5.616;2023-02-12T00:38:02;103623.28;;;4.94;89.65
71805;BME280;59654;52.216;5.616;2023-02-12T00:38:33;103618.84;;;4.93;89.75
71805;BME280;59654;52.216;5.616;2023-02-12T00:39:04;103617.06;;;4.92;89.43
71805;BME280;59654;52.216;5.616;2023-02-12T00:39:35;103617.00;;;4.90;89.19
71805;BME280;59654;52.216;5.616;2023-02-12T00:40:08;103617.81;;;4.88;89.09
71805;BME280;59654;52.216;5.616;2023-02-12T00:40:39;103621.28;;;4.87;89.45
71805;BME280;59654;52.216;5.616;2023-02-12T00:41:10;103617.69;;;4.85;89.45
71805;BME280;59654;52.216;5.616;2023-02-12T00:41:41;103621.09;;;4.81;89.21
71805;BME280;59654;52.216;5.616;2023-02-12T00:42:12;103623.72;;;4.79;89.67
71805;BME280;59654;52.216;5.616;2023-02-12T00:42:43;103625.41;;;4.77;89.66
71805;BME280;59654;52.216;5.616;2023-02-12T00:43:14;103619.19;;;4.75;89.97
71805;BME280;59654;52.216;5.616;2023-02-12T00:43:45;103621.78;;;4.73;89.65
71805;BME280;59654;52.216;5.616;2023-02-12T00:44:16;103622.56;;;4.71;89.41
71805;BME280;59654;52.216;5.616;2023-02-12T00:44:47;103623.38;;;4.68;89.55
71805;BME280;59654;52.216;5.616;2023-02-12T00:45:18;103624.16;;;4.66;89.53
71805;BME280;59654;52.216;5.616;2023-02-12T00:45:48;103620.59;;;4.64;89.30
71805;BME280;59654;52.216;5.616;2023-02-12T00:46:19;103629.28;;;4.60;89.37
71805;BME280;59654;52.216;5.616;2023-02-12T00:46:50;103626.53;;;4.57;89.54
71805;BME280;59654;52.216;5.616;2023-02-12T00:47:21;103620.25;;;4.53;89.00
71805;BME280;59654;52.216;5.616;2023-02-12T00:47:53;103623.69;;;4.51;89.02
71805;BME280;59654;52.216;5.616;2023-02-12T00:48:24;103623.59;;;4.48;88.69
71805;BME280;59654;52.216;5.616;2023-02-12T00:48:55;103618.19;;;4.43;88.80
71805;BME280;59654;52.216;5.616;2023-02-12T00:49:26;103624.31;;;4.42;88.83
71805;BME280;59654;52.216;5.616;2023-02-12T00:49:56;103622.41;;;4.38;88.48
71805;BME280;59654;52.216;5.616;2023-02-12T00:50:27;103621.38;;;4.33;88.51
71805;BME280;59654;52.216;5.616;2023-02-12T00:50:58;103628.25;;;4.28;87.73
71805;BME280;59654;52.216;5.616;2023-02-12T00:51:31;103628.94;;;4.22;88.14
71805;BME280;59654;52.216;5.616;2023-02-12T00:52:03;103626.25;;;4.21;88.90
71805;BME280;59654;52.216;5.616;2023-02-12T00:52:34;103628.91;;;4.21;89.03
71805;BME280;59654;52.216;5.616;2023-02-12T00:53:06;103624.41;;;4.18;89.58
71805;BME280;59654;52.216;5.616;2023-02-12T00:53:37;103633.16;;;4.17;89.92
71805;BME280;59654;52.216;5.616;2023-02-12T00:54:08;103627.84;;;4.16;90.68
71805;BME280;59654;52.216;5.616;2023-02-12T00:54:39;103626.91;;;4.14;90.28
71805;BME280;59654;52.216;5.616;2023-02-12T00:55:09;103631.25;;;4.12;90.59
71805;BME280;59654;52.216;5.616;2023-02-12T00:55:41;103631.25;;;4.12;91.20
71805;BME280;59654;52.216;5.616;2023-02-12T00:56:11;103632.09;;;4.11;90.66
71805;BME280;59654;52.216;5.616;2023-02-12T00:56:42;103629.41;;;4.09;91.04
71805;BME280;59654;52.216;5.616;2023-02-12T00:57:13;103628.50;;;4.09;91.05
71805;BME280;59654;52.216;5.616;2023-02-12T00:57:44;103626.69;;;4.08;91.25
71805;BME280;59654;52.216;5.616;2023-02-12T00:58:15;103632.81;;;4.07;91.21
71805;BME280;59654;52.216;5.616;2023-02-12T00:58:46;103632.78;;;4.05;90.98
71805;BME280;59654;52.216;5.616;2023-02-12T00:59:17;103630.13;;;4.05;91.34
71805;BME280;59654;52.216;5.616;2023-02-12T00:59:47;103626.53;;;4.03;91.11
71805;BME280;59654;52.216;5.616;2023-02-12T01:00:18;103630.91;;;4.02;91.18
71805;BME280;59654;52.216;5.616;2023-02-12T01:00:49;103632.66;;;4.02;90.90
71805;BME280;59654;52.216;5.616;2023-02-12T01:01:20;103625.59;;;4.01;91.42
71805;BME280;59654;52.216;5.616;2023-02-12T01:01:53;103627.31;;;4.00;91.28
71805;BME280;59654;52.216;5.616;2023-02-12T01:02:24;103629.91;;;3.99;91.17
71805;BME280;59654;52.216;5.616;2023-02-12T01:02:55;103621.06;;;3.97;91.08
71805;BME280;59654;52.216;5.616;2023-02-12T01:03:26;103628.16;;;3.98;91.10
71805;BME280;59654;52.216;5.616;2023-02-12T01:03:57;103624.56;;;3.96;90.72
71805;BME280;59654;52.216;5.616;2023-02-12T01:04:30;103628.03;;;3.95;91.02
71805;BME280;59654;52.216;5.616;2023-02-12T01:05:01;103627.03;;;3.91;91.08
71805;BME280;59654;52.216;5.616;2023-02-12T01:05:32;103624.41;;;3.91;90.88
71805;BME280;59654;52.216;5.616;2023-02-12T01:06:03;103627.94;;;3.92;91.11
71805;BME280;59654;52.216;5.616;2023-02-12T01:06:35;103628.81;;;3.92;90.86
71805;BME280;59654;52.216;5.616;2023-02-12T01:07:06;103626.13;;;3.91;91.53
71805;BME280;59654;52.216;5.616;2023-02-12T01:07:36;103627.88;;;3.90;91.22
71805;BME280;59654;52.216;5.616;2023-02-12T01:08:11;103628.78;;;3.91;91.42
71805;BME280;59654;52.216;5.616;2023-02-12T01:08:43;103624.34;;;3.90;91.99
71805;BME280;59654;52.216;5.616;2023-02-12T01:09:14;103624.34;;;3.90;91.44
71805;BME280;59654;52.216;5.616;2023-02-12T01:09:45;103632.16;;;3.87;91.37
71805;BME280;59654;52.216;5.616;2023-02-12T01:10:16;103626.91;;;3.88;91.72
71805;BME280;59654;52.216;5.616;2023-02-12T01:11:01;103634.72;;;3.85;91.82
71805;BME280;59654;52.216;5.616;2023-02-12T01:11:33;103630.22;;;3.83;91.45
71805;BME280;59654;52.216;5.616;2023-02-12T01:12:04;103631.97;;;3.81;91.15
71805;BME280;59654;52.216;5.616;2023-02-12T01:12:35;103630.16;;;3.80;90.81
71805;BME280;59654;52.216;5.616;2023-02-12T01:13:06;103634.53;;;3.79;90.55
71805;BME280;59654;52.216;5.616;2023-02-12T01:13:37;103631.00;;;3.79;90.83
71805;BME280;59654;52.216;5.616;2023-02-12T01:14:08;103633.59;;;3.77;90.32
71805;BME280;59654;52.216;5.616;2023-02-12T01:14:38;103632.63;;;3.75;90.79
71805;BME280;59654;52.216;5.616;2023-02-12T01:15:09;103629.16;;;3.76;91.00
71805;BME280;59654;52.216;5.616;2023-02-12T01:15:41;103629.03;;;3.73;90.52
71805;BME280;59654;52.216;5.616;2023-02-12T01:16:16;103633.34;;;3.71;90.46
71805;BME280;59654;52.216;5.616;2023-02-12T01:16:48;103629.75;;;3.69;90.48
71805;BME280;59654;52.216;5.616;2023-02-12T01:17:19;103626.28;;;3.70;90.50
71805;BME280;59654;52.216;5.616;2023-02-12T01:17:51;103625.31;;;3.68;90.29
71805;BME280;59654;52.216;5.616;2023-02-12T01:18:22;103627.97;;;3.68;90.70
71805;BME280;59654;52.216;5.616;2023-02-12T01:18:54;103627.00;;;3.66;90.65
71805;BME280;59654;52.216;5.616;2023-02-12T01:19:24;103627.91;;;3.66;91.17
71805;BME280;59654;52.216;5.616;2023-02-12T01:19:56;103626.16;;;3.65;90.96
71805;BME280;59654;52.216;5.616;2023-02-12T01:20:28;103622.63;;;3.65;91.52
71805;BME280;59654;52.216;5.616;2023-02-12T01:20:58;103627.88;;;3.65;91.37
71805;BME280;59654;52.216;5.616;2023-02-12T01:21:33;103631.44;;;3.65;91.64
71805;BME280;59654;52.216;5.616;2023-02-12T01:22:04;103628.78;;;3.65;91.80
71805;BME280;59654;52.216;5.616;2023-02-12T01:22:36;103629.66;;;3.66;92.07
71805;BME280;59654;52.216;5.616;2023-02-12T01:23:08;103632.28;;;3.66;91.99
71805;BME280;59654;52.216;5.616;2023-02-12T01:23:39;103631.44;;;3.65;92.17
71805;BME280;59654;52.216;5.616;2023-02-12T01:24:10;103633.16;;;3.65;91.77
71805;BME280;59654;52.216;5.616;2023-02-12T01:24:41;103622.63;;;3.65;92.31
71805;BME280;59654;52.216;5.616;2023-02-12T01:25:13;103629.63;;;3.64;92.04
71805;BME280;59654;52.216;5.616;2023-02-12T01:25:43;103628.72;;;3.64;91.91
71805;BME280;59654;52.216;5.616;2023-02-12T01:26:16;103635.75;;;3.63;92.12
71805;BME280;59654;52.216;5.616;2023-02-12T01:26:48;103627.00;;;3.64;91.96
71805;BME280;59654;52.216;5.616;2023-02-12T01:27:19;103625.25;;;3.65;91.92
71805;BME280;59654;52.216;5.616;2023-02-12T01:27:52;103630.53;;;3.65;91.79
71805;BME280;59654;52.216;5.616;2023-02-12T01:28:23;103629.63;;;3.64;91.31
71805;BME280;59654;52.216;5.616;2023-02-12T01:29:02;103633.09;;;3.63;91.20
71805;BME280;59654;52.216;5.616;2023-02-12T01:29:34;103626.03;;;3.62;92.06
71805;BME280;59654;52.216;5.616;2023-02-12T01:30:08;103631.31;;;3.62;91.68
71805;BME280;59654;52.216;5.616;2023-02-12T01:30:40;103622.50;;;3.62;91.31
71805;BME280;59654;52.216;5.616;2023-02-12T01:31:13;103623.34;;;3.61;90.98
71805;BME280;59654;52.216;5.616;2023-02-12T01:31:45;103626.88;;;3.61;91.40
71805;BME280;59654;52.216;5.616;2023-02-12T01:32:16;103625.91;;;3.59;91.11
71805;BME280;59654;52.216;5.616;2023-02-12T01:32:47;103626.75;;;3.58;91.28
71805;BME280;59654;52.216;5.616;2023-02-12T01:33:18;103624.13;;;3.58;91.22
71805;BME280;59654;52.216;5.616;2023-02-12T01:33:52;103628.50;;;3.58;91.12
71805;BME280;59654;52.216;5.616;2023-02-12T01:34:24;103624.06;;;3.57;91.29
71805;BME280;59654;52.216;5.616;2023-02-12T01:34:56;103613.47;;;3.55;91.11
71805;BME280;59654;52.216;5.616;2023-02-12T01:35:26;103621.38;;;3.55;90.86
71805;BME280;59654;52.216;5.616;2023-02-12T01:35:57;103621.38;;;3.55;90.42
71805;BME280;59654;52.216;5.616;2023-02-12T01:36:29;103619.50;;;3.53;90.40
71805;BME280;59654;52.216;5.616;2023-02-12T01:37:00;103617.72;;;3.52;90.33
71805;BME280;59654;52.216;5.616;2023-02-12T01:37:34;103622.94;;;3.50;90.37
71805;BME280;59654;52.216;5.616;2023-02-12T01:38:06;103616.75;;;3.48;90.54
71805;BME280;59654;52.216;5.616;2023-02-12T01:38:37;103620.16;;;3.46;90.86
71805;BME280;59654;52.216;5.616;2023-02-12T01:39:09;103630.72;;;3.46;90.73
71805;BME280;59654;52.216;5.616;2023-02-12T01:39:41;103621.97;;;3.47;91.01
71805;BME280;59654;52.216;5.616;2023-02-12T01:40:14;103619.31;;;3.47;91.06
71805;BME280;59654;52.216;5.616;2023-02-12T01:40:49;103631.66;;;3.48;91.46
71805;BME280;59654;52.216;5.616;2023-02-12T01:41:22;103628.13;;;3.47;91.42
71805;BME280;59654;52.216;5.616;2023-02-12T01:41:55;103623.75;;;3.48;91.71
71805;BME280;59654;52.216;5.616;2023-02-12T01:42:26;103627.28;;;3.48;91.42
71805;BME280;59654;52.216;5.616;2023-02-12T01:43:00;103629.94;;;3.48;91.18
71805;BME280;59654;52.216;5.616;2023-02-12T01:43:34;103635.22;;;3.50;91.43
71805;BME280;59654;52.216;5.616;2023-02-12T01:44:16;103621.19;;;3.49;91.88
71805;BME280;59654;52.216;5.616;2023-02-12T01:45:47;103625.50;;;3.47;91.06
71805;BME280;59654;52.216;5.616;2023-02-12T01:46:20;103625.50;;;3.47;91.32
71805;BME280;59654;52.216;5.616;2023-02-12T01:46:56;103627.22;;;3.47;91.31
71805;BME280;59654;52.216;5.616;2023-02-12T01:47:29;103625.44;;;3.46;91.11
71805;BME280;59654;52.216;5.616;2023-02-12T01:48:00;103622.78;;;3.46;91.48
71805;BME280;59654;52.216;5.616;2023-02-12T01:48:37;103624.59;;;3.47;91.46
71805;BME280;59654;52.216;5.616;2023-02-12T01:49:17;103631.56;;;3.45;91.49
71805;BME280;59654;52.216;5.616;2023-02-12T01:49:50;103631.59;;;3.46;91.61
71805;BME280;59654;52.216;5.616;2023-02-12T01:50:22;103626.28;;;3.45;91.68
71805;BME280;59654;52.216;5.616;2023-02-12T01:50:53;103630.66;;;3.44;91.45
71805;BME280;59654;52.216;5.616;2023-02-12T01:51:28;103632.44;;;3.45;91.09
71805;BME280;59654;52.216;5.616;2023-02-12T01:52:06;103627.97;;;3.43;90.98
71805;BME280;59654;52.216;5.616;2023-02-12T01:52:46;103626.94;;;3.39;91.16
71805;BME280;59654;52.216;5.616;2023-02-12T01:53:22;103628.75;;;3.40;91.34
71805;BME280;59654;52.216;5.616;2023-02-12T01:53:59;103625.19;;;3.40;91.81
71805;BME280;59654;52.216;5.616;2023-02-12T01:54:35;103627.84;;;3.40;92.14
71805;BME280;59654;52.216;5.616;2023-02-12T01:55:09;103620.81;;;3.40;91.52
71805;BME280;59654;52.216;5.616;2023-02-12T01:55:41;103626.94;;;3.39;91.53
71805;BME280;59654;52.216;5.616;2023-02-12T01:56:12;103626.94;;;3.39;91.43
71805;BME280;59654;52.216;5.616;2023-02-12T01:56:45;103626.94;;;3.39;91.44
71805;BME280;59654;52.216;5.616;2023-02-12T01:57:17;103627.84;;;3.40;91.25
71805;BME280;59654;52.216;5.616;2023-02-12T01:57:48;103626.94;;;3.39;91.70
71805;BME280;59654;52.216;5.616;2023-02-12T01:58:19;103625.16;;;3.38;91.31
71805;BME280;59654;52.216;5.616;2023-02-12T01:58:54;103626.03;;;3.39;91.60
71805;BME280;59654;52.216;5.616;2023-02-12T01:59:28;103620.78;;;3.39;91.40
71805;BME280;59654;52.216;5.616;2023-02-12T02:00:03;103619.88;;;3.38;91.17
71805;BME280;59654;52.216;5.616;2023-02-12T02:00:44;103628.63;;;3.37;90.96
71805;BME280;59654;52.216;5.616;2023-02-12T02:01:20;103619.81;;;3.37;91.31
71805;BME280;59654;52.216;5.616;2023-02-12T02:01:53;103623.28;;;3.36;91.09
71805;BME280;59654;52.216;5.616;2023-02-12T02:02:25;103619.81;;;3.37;90.87
71805;BME280;59654;52.216;5.616;2023-02-12T02:02:59;103628.56;;;3.36;91.11
71805;BME280;59654;52.216;5.616;2023-02-12T02:03:36;103620.66;;;3.36;91.25
71805;BME280;59654;52.216;5.616;2023-02-12T02:04:14;103625.09;;;3.37;91.23
71805;BME280;59654;52.216;5.616;2023-02-12T02:04:55;103625.94;;;3.36;91.29
71805;BME280;59654;52.216;5.616;2023-02-12T02:05:51;103622.34;;;3.33;90.72
71805;BME280;59654;52.216;5.616;2023-02-12T02:06:32;103623.22;;;3.34;91.03
71805;BME280;59654;52.216;5.616;2023-02-12T02:07:05;103622.31;;;3.32;91.30
71805;BME280;59654;52.216;5.616;2023-02-12T02:07:39;103619.66;;;3.32;90.98
71805;BME280;59654;52.216;5.616;2023-02-12T02:08:13;103621.41;;;3.31;90.96
71805;BME280;59654;52.216;5.616;2023-02-12T02:08:44;103621.41;;;3.31;90.98
71805;BME280;59654;52.216;5.616;2023-02-12T02:09:18;103622.25;;;3.30;91.03
71805;BME280;59654;52.216;5.616;2023-02-12T02:09:49;103619.56;;;3.29;90.87
71805;BME280;59654;52.216;5.616;2023-02-12T02:10:20;103618.66;;;3.28;91.14
71805;BME280;59654;52.216;5.616;2023-02-12T02:10:51;103622.13;;;3.27;91.44
71805;BME280;59654;52.216;5.616;2023-02-12T02:11:22;103621.22;;;3.27;91.16
71805;BME280;59654;52.216;5.616;2023-02-12T02:12:11;103623.81;;;3.25;90.87
71805;BME280;59654;52.216;5.616;2023-02-12T02:13:02;103630.75;;;3.23;90.18
71805;BME280;59654;52.216;5.616;2023-02-12T02:13:53;103634.22;;;3.22;90.97
71805;BME280;59654;52.216;5.616;2023-02-12T02:14:45;103627.09;;;3.20;90.46
71805;BME280;59654;52.216;5.616;2023-02-12T02:15:16;103622.66;;;3.19;90.31
71805;BME280;59654;52.216;5.616;2023-02-12T02:15:52;103630.53;;;3.17;90.82
71805;BME280;59654;52.216;5.616;2023-02-12T02:16:28;103626.06;;;3.15;90.45
71805;BME280;59654;52.216;5.616;2023-02-12T02:18:45;103629.22;;;3.06;90.33
71805;BME280;59654;52.216;5.616;2023-02-12T02:22:00;103632.50;;;2.99;91.08
71805;BME280;59654;52.216;5.616;2023-02-12T02:23:25;103628.84;;;2.95;90.70
71805;BME280;59654;52.216;5.616;2023-02-12T02:26:30;103629.75;;;2.96;90.96
71805;BME280;59654;52.216;5.616;2023-02-12T02:28:55;103624.97;;;2.87;90.12
71805;BME280;59654;52.216;5.616;2023-02-12T02:32:26;103620.00;;;2.73;89.62
71805;BME280;59654;52.216;5.616;2023-02-12T02:34:23;103618.97;;;2.69;91.31
71805;BME280;59654;52.216;5.616;2023-02-12T02:40:19;103615.63;;;2.73;91.77
71805;BME280;59654;52.216;5.616;2023-02-12T02:41:19;103617.44;;;2.74;91.67
71805;BME280;59654;52.216;5.616;2023-02-12T02:42:55;103623.59;;;2.75;91.19
71805;BME280;59654;52.216;5.616;2023-02-12T02:43:39;103613.06;;;2.75;91.51
71805;BME280;59654;52.216;5.616;2023-02-12T02:44:21;103620.19;;;2.77;91.36
71805;BME280;59654;52.216;5.616;2023-02-12T02:45:53;103619.28;;;2.77;90.65
71805;BME280;59654;52.216;5.616;2023-02-12T02:46:33;103620.13;;;2.76;90.85
71805;BME280;59654;52.216;5.616;2023-02-12T02:47:13;103619.22;;;2.75;90.95
71805;BME280;59654;52.216;5.616;2023-02-12T02:48:05;103611.28;;;2.74;90.76
71805;BME280;59654;52.216;5.616;2023-02-12T02:48:51;103613.91;;;2.74;90.61
71805;BME280;59654;52.216;5.616;2023-02-12T02:49:57;103608.63;;;2.74;91.39
71805;BME280;59654;52.216;5.616;2023-02-12T02:50:35;103609.47;;;2.73;90.69
71805;BME280;59654;52.216;5.616;2023-02-12T02:51:15;103606.84;;;2.73;91.43
71805;BME280;59654;52.216;5.616;2023-02-12T02:52:05;103611.22;;;2.72;90.82
71805;BME280;59654;52.216;5.616;2023-02-12T02:52:49;103608.63;;;2.74;90.46
71805;BME280;59654;52.216;5.616;2023-02-12T02:53:32;103613.84;;;2.72;90.20
71805;BME280;59654;52.216;5.616;2023-02-12T02:54:15;103605.88;;;2.71;90.79
71805;BME280;59654;52.216;5.616;2023-02-12T02:55:07;103606.69;;;2.68;90.39
71805;BME280;59654;52.216;5.616;2023-02-12T02:55:50;103611.06;;;2.68;90.26
71805;BME280;59654;52.216;5.616;2023-02-12T02:56:26;103601.22;;;2.63;90.08
71805;BME280;59654;52.216;5.616;2023-02-12T02:57:13;103614.28;;;2.60;89.85
71805;BME280;59654;52.216;5.616;2023-02-12T02:58:00;103611.50;;;2.57;90.08
71805;BME280;59654;52.216;5.616;2023-02-12T02:58:43;103609.72;;;2.56;89.93
71805;BME280;59654;52.216;5.616;2023-02-12T02:59:27;103608.75;;;2.54;89.60
71805;BME280;59654;52.216;5.616;2023-02-12T03:00:31;103607.78;;;2.52;90.50
71805;BME280;59654;52.216;5.616;2023-02-12T03:01:15;103612.13;;;2.50;90.51
71805;BME280;59654;52.216;5.616;2023-02-12T03:02:05;103604.09;;;2.47;89.55
71805;BME280;59654;52.216;5.616;2023-02-12T03:02:52;103603.97;;;2.44;89.80
71805;BME280;59654;52.216;5.616;2023-02-12T03:03:33;103601.22;;;2.41;90.22
71805;BME280;59654;52.216;5.616;2023-02-12T03:04:27;103599.41;;;2.40;91.05
71805;BME280;59654;52.216;5.616;2023-02-12T03:06:11;103606.25;;;2.35;91.31
71805;BME280;59654;52.216;5.616;2023-02-12T03:07:35;103594.81;;;2.35;91.36
71805;BME280;59654;52.216;5.616;2023-02-12T03:08:20;103605.28;;;2.33;91.58
71805;BME280;59654;52.216;5.616;2023-02-12T03:09:03;103601.75;;;2.33;91.24
71805;BME280;59654;52.216;5.616;2023-02-12T03:09:46;103599.97;;;2.32;91.37
71805;BME280;59654;52.216;5.616;2023-02-12T03:10:29;103603.44;;;2.31;91.27
71805;BME280;59654;52.216;5.616;2023-02-12T03:11:15;103597.25;;;2.30;91.65
71805;BME280;59654;52.216;5.616;2023-02-12T03:12:02;103602.53;;;2.30;91.54
71805;BME280;59654;52.216;5.616;2023-02-12T03:13:01;103603.44;;;2.31;91.45
71805;BME280;59654;52.216;5.616;2023-02-12T03:14:34;103601.50;;;2.26;90.86
71805;BME280;59654;52.216;5.616;2023-02-12T03:17:33;103597.00;;;2.24;90.24
71805;BME280;59654;52.216;5.616;2023-02-12T03:18:15;103595.16;;;2.21;90.44
71805;BME280;59654;52.216;5.616;2023-02-12T03:19:02;103591.59;;;2.19;90.57
71805;BME280;59654;52.216;5.616;2023-02-12T03:19:54;103595.88;;;2.17;90.08
71805;BME280;59654;52.216;5.616;2023-02-12T03:20:40;103603.66;;;2.14;90.72
71805;BME280;59654;52.216;5.616;2023-02-12T03:21:17;103598.31;;;2.13;90.49
71805;BME280;59654;52.216;5.616;2023-02-12T03:21:59;103594.72;;;2.11;90.51
71805;BME280;59654;52.216;5.616;2023-02-12T03:22:36;103599.09;;;2.10;91.18
71805;BME280;59654;52.216;5.616;2023-02-12T03:23:36;103589.47;;;2.11;90.96
71805;BME280;59654;52.216;5.616;2023-02-12T03:25:06;103598.25;;;2.11;91.17
71805;BME280;59654;52.216;5.616;2023-02-12T03:26:07;103604.34;;;2.10;91.25
71805;BME280;59654;52.216;5.616;2023-02-12T03:26:57;103601.59;;;2.07;91.08
71805;BME280;59654;52.216;5.616;2023-02-12T03:27:38;103602.47;;;2.08;91.14
71805;BME280;59654;52.216;5.616;2023-02-12T03:28:26;103607.69;;;2.06;91.45
71805;BME280;59654;52.216;5.616;2023-02-12T03:28:58;103600.69;;;2.07;90.92
71805;BME280;59654;52.216;5.616;2023-02-12T03:29:30;103598.00;;;2.05;91.03
71805;BME280;59654;52.216;5.616;2023-02-12T03:30:02;103599.72;;;2.05;90.78
71805;BME280;59654;52.216;5.616;2023-02-12T03:32:58;103600.53;;;2.02;91.41
71805;BME280;59654;52.216;5.616;2023-02-12T03:36:32;103601.34;;;2.01;91.38
71805;BME280;59654;52.216;5.616;2023-02-12T03:36:59;103600.38;;;1.99;91.05
71805;BME280;59654;52.216;5.616;2023-02-12T03:37:46;103608.22;;;1.98;90.90
71805;BME280;59654;52.216;5.616;2023-02-12T03:38:32;103608.22;;;1.98;90.36